Time;durP1;ratioP1;P1;durP2;ratioP2;P2;SDS_P1;SDS_P2;PMS_P1;PMS_P2;Temp;Humidity;BMP_temperature;BMP_pressure;BME280_temperature;BME280_humidity;BME280_pressure;Samples;Min_cycle;Max_cycle;Signal;HPM_P1;HPM_P2
2021/05/07 00:02:17;;;;;;;13.00;6.40;;;4.10;93.40;;;;;;4986565;28;20033;-85
2021/05/07 00:04:43;;;;;;;11.93;6.13;;;4.20;93.30;;;;;;4989878;28;20394;-84
2021/05/07 00:07:08;;;;;;;10.35;6.15;;;4.10;93.30;;;;;;4989301;28;20398;-85
2021/05/07 00:09:34;;;;;;;12.30;6.20;;;4.20;93.30;;;;;;4986722;28;20022;-85
2021/05/07 00:11:59;;;;;;;13.10;7.38;;;4.20;93.40;;;;;;4988827;28;20027;-85
2021/05/07 00:14:25;;;;;;;9.20;6.20;;;4.20;93.30;;;;;;4988952;28;20042;-85
2021/05/07 00:16:53;;;;;;;11.68;6.63;;;4.20;93.40;;;;;;4989409;28;20054;-85
2021/05/07 00:19:19;;;;;;;9.57;6.53;;;4.20;93.50;;;;;;4982593;28;20031;-85
2021/05/07 00:21:45;;;;;;;12.35;7.22;;;4.20;93.50;;;;;;4985896;28;20031;-84
2021/05/07 00:24:11;;;;;;;11.18;6.00;;;4.20;93.50;;;;;;4989214;28;20367;-84
2021/05/07 00:26:36;;;;;;;12.18;6.28;;;4.10;93.40;;;;;;4983290;28;20037;-85
2021/05/07 00:29:02;;;;;;;8.68;6.47;;;4.10;93.40;;;;;;4983676;28;20034;-84
2021/05/07 00:31:28;;;;;;;12.25;7.63;;;4.10;93.50;;;;;;4986968;28;20030;-85
2021/05/07 00:33:54;;;;;;;16.98;7.25;;;4.00;93.50;;;;;;4983318;28;20454;-85
2021/05/07 00:36:20;;;;;;;12.20;7.25;;;4.00;93.50;;;;;;4986393;28;20022;-84
2021/05/07 00:38:46;;;;;;;15.68;7.72;;;3.90;93.60;;;;;;4989084;28;20026;-85
2021/05/07 00:41:12;;;;;;;11.23;7.07;;;3.90;93.60;;;;;;4985919;28;20054;-85
2021/05/07 00:43:39;;;;;;;11.15;6.15;;;3.80;93.70;;;;;;5016443;28;20091;-84
2021/05/07 00:46:04;;;;;;;10.57;5.93;;;3.70;93.70;;;;;;4993489;28;20065;-84
2021/05/07 00:48:30;;;;;;;10.90;6.68;;;3.60;93.80;;;;;;4984001;28;20054;-85
2021/05/07 00:50:56;;;;;;;8.40;5.72;;;3.50;93.90;;;;;;4989192;28;20052;-85
2021/05/07 00:53:22;;;;;;;10.85;6.45;;;3.40;93.90;;;;;;4988082;28;20110;-84
2021/05/07 00:55:47;;;;;;;11.60;6.97;;;3.30;94.00;;;;;;4987643;28;20027;-84
2021/05/07 00:58:14;;;;;;;12.50;6.55;;;3.20;94.10;;;;;;4978119;28;20126;-84
2021/05/07 01:00:40;;;;;;;14.02;7.53;;;3.20;94.10;;;;;;4977575;28;20038;-84
2021/05/07 01:03:05;;;;;;;14.73;8.80;;;3.10;94.30;;;;;;4984668;28;20046;-84
2021/05/07 01:05:31;;;;;;;13.85;8.82;;;3.00;94.30;;;;;;4979208;28;20039;-84
2021/05/07 01:07:57;;;;;;;15.77;8.55;;;3.00;94.30;;;;;;4986034;28;20019;-84
2021/05/07 01:10:24;;;;;;;15.30;9.45;;;3.00;94.40;;;;;;4982663;28;20030;-84
2021/05/07 01:12:50;;;;;;;14.82;9.63;;;3.00;94.40;;;;;;4987748;28;20117;-85
2021/05/07 01:15:15;;;;;;;17.00;10.27;;;3.00;94.40;;;;;;4983961;28;20031;-84
2021/05/07 01:17:52;;;;;;;15.88;9.85;;;3.00;94.40;;;;;;5044183;28;20092;-85
2021/05/07 01:20:29;;;;;;;17.08;10.35;;;3.00;94.40;;;;;;4987890;28;20042;-85
2021/05/07 01:22:57;;;;;;;16.67;9.80;;;3.00;94.40;;;;;;4981310;28;20036;-85
2021/05/07 01:25:25;;;;;;;16.52;9.63;;;2.90;94.50;;;;;;4999926;28;20050;-84
2021/05/07 01:27:54;;;;;;;17.30;9.90;;;2.80;94.40;;;;;;4983131;28;20031;-86
2021/05/07 01:30:24;;;;;;;20.40;11.18;;;2.80;94.60;;;;;;4982179;28;20031;-86
2021/05/07 01:32:51;;;;;;;17.83;10.88;;;2.80;94.60;;;;;;4977607;28;20026;-86
2021/05/07 01:35:25;;;;;;;17.90;11.93;;;2.70;94.60;;;;;;4994579;28;20057;-86
2021/05/07 01:37:53;;;;;;;20.80;11.25;;;2.80;94.70;;;;;;4983695;28;20041;-85
2021/05/07 01:40:29;;;;;;;16.65;10.88;;;2.70;94.70;;;;;;4981250;28;20406;-85
2021/05/07 01:42:55;;;;;;;18.52;11.90;;;2.70;94.70;;;;;;4988671;28;20027;-86
2021/05/07 01:45:24;;;;;;;16.73;10.95;;;2.70;94.70;;;;;;4986515;28;20026;-85
2021/05/07 01:47:50;;;;;;;19.33;11.82;;;2.70;94.80;;;;;;4978769;28;20033;-85
2021/05/07 01:50:18;;;;;;;21.63;12.27;;;2.70;94.80;;;;;;4986097;28;20026;-85
2021/05/07 01:52:44;;;;;;;18.35;11.52;;;2.70;94.80;;;;;;5004608;28;20026;-86
2021/05/07 01:55:12;;;;;;;16.48;11.63;;;2.60;94.80;;;;;;4986401;28;20030;-86
2021/05/07 01:57:39;;;;;;;18.30;11.30;;;2.70;94.90;;;;;;4977267;28;20049;-85
2021/05/07 02:00:17;;;;;;;18.17;12.23;;;2.70;94.90;;;;;;4991260;28;20058;-85
2021/05/07 02:02:43;;;;;;;18.80;12.35;;;2.70;94.90;;;;;;4999227;28;20034;-86
2021/05/07 02:05:11;;;;;;;19.55;12.43;;;2.70;95.00;;;;;;4987951;28;20031;-86
2021/05/07 02:07:37;;;;;;;17.60;11.90;;;2.70;95.10;;;;;;5017306;28;20107;-86
2021/05/07 02:10:10;;;;;;;17.17;12.05;;;2.80;95.10;;;;;;4992016;28;20030;-85
2021/05/07 02:12:36;;;;;;;19.30;12.15;;;2.80;95.10;;;;;;4985300;28;20035;-86
2021/05/07 02:15:06;;;;;;;25.23;13.38;;;2.90;95.10;;;;;;5001072;28;20024;-86
2021/05/07 02:17:32;;;;;;;20.50;12.35;;;2.90;95.00;;;;;;4990263;28;20031;-86
2021/05/07 02:19:58;;;;;;;19.33;12.75;;;2.90;95.00;;;;;;4993023;28;20030;-86
2021/05/07 02:22:23;;;;;;;19.77;12.40;;;2.90;95.00;;;;;;4990917;28;20450;-86
2021/05/07 02:24:49;;;;;;;22.65;13.10;;;3.00;95.10;;;;;;4986871;28;20034;-86
2021/05/07 02:27:14;;;;;;;17.33;12.45;;;3.00;95.00;;;;;;4979571;28;20032;-85
2021/05/07 02:29:40;;;;;;;22.63;14.25;;;3.10;95.00;;;;;;4988610;28;20390;-85
2021/05/07 02:32:05;;;;;;;23.95;14.43;;;3.10;95.00;;;;;;4985967;28;20030;-86
2021/05/07 02:34:31;;;;;;;21.33;13.43;;;3.20;95.00;;;;;;4979086;28;20026;-86
2021/05/07 02:36:56;;;;;;;19.25;12.80;;;3.20;95.00;;;;;;5001862;28;20015;-85
2021/05/07 02:39:22;;;;;;;21.30;13.95;;;3.30;95.00;;;;;;4991592;28;20394;-85
2021/05/07 02:41:48;;;;;;;19.40;13.50;;;3.30;95.00;;;;;;4986732;28;20035;-86
2021/05/07 02:44:13;;;;;;;23.73;14.70;;;3.40;95.00;;;;;;4987852;28;20027;-85
2021/05/07 02:46:39;;;;;;;22.33;14.43;;;3.40;95.00;;;;;;4992314;28;20026;-85
2021/05/07 02:49:05;;;;;;;20.63;13.50;;;3.40;94.90;;;;;;4987921;28;20023;-85
2021/05/07 02:51:32;;;;;;;20.65;13.70;;;3.50;95.00;;;;;;4991528;28;20034;-86
2021/05/07 02:53:58;;;;;;;24.10;14.82;;;3.50;95.00;;;;;;4984281;28;20080;-85
2021/05/07 02:56:24;;;;;;;23.17;14.73;;;3.50;95.00;;;;;;4992971;28;20486;-85
2021/05/07 02:58:49;;;;;;;23.50;15.15;;;3.60;95.00;;;;;;4984218;28;20156;-85
2021/05/07 03:01:15;;;;;;;20.05;14.30;;;3.60;94.90;;;;;;4980423;28;20414;-85
2021/05/07 03:03:40;;;;;;;23.55;14.88;;;3.70;94.90;;;;;;4989463;28;20035;-85
2021/05/07 03:06:06;;;;;;;25.77;16.25;;;3.70;94.90;;;;;;4991840;28;20034;-85
2021/05/07 03:08:32;;;;;;;20.65;14.57;;;3.70;94.90;;;;;;4986967;28;20125;-85
2021/05/07 03:10:57;;;;;;;23.77;14.82;;;3.70;94.90;;;;;;4981334;28;20039;-86
2021/05/07 03:13:23;;;;;;;27.75;17.60;;;3.70;94.90;;;;;;4987747;28;20022;-85
2021/05/07 03:15:49;;;;;;;26.73;17.05;;;3.80;94.90;;;;;;4990114;28;20027;-85
2021/05/07 03:18:19;;;;;;;31.58;18.85;;;3.80;94.90;;;;;;4991035;28;20061;-86
2021/05/07 03:20:45;;;;;;;29.60;18.88;;;3.80;95.00;;;;;;4983531;28;20087;-85
2021/05/07 03:23:11;;;;;;;29.70;18.23;;;3.80;95.00;;;;;;4987561;28;20035;-85
2021/05/07 03:25:38;;;;;;;26.15;17.75;;;3.90;95.00;;;;;;4991002;28;20115;-86
2021/05/07 03:28:04;;;;;;;24.23;15.93;;;3.90;95.00;;;;;;4984002;28;20033;-86
2021/05/07 03:30:32;;;;;;;25.75;17.50;;;4.00;95.00;;;;;;4991658;28;20046;-86
2021/05/07 03:32:57;;;;;;;32.50;16.77;;;4.00;95.00;;;;;;4990382;28;20072;-85
2021/05/07 03:35:23;;;;;;;33.42;18.63;;;4.00;94.90;;;;;;4986204;28;20026;-86
2021/05/07 03:37:48;;;;;;;26.60;17.83;;;4.00;94.90;;;;;;4982921;28;20026;-85
2021/05/07 03:40:14;;;;;;;30.23;18.58;;;4.10;95.00;;;;;;4992873;28;20033;-85
2021/05/07 03:42:40;;;;;;;29.45;18.92;;;4.10;94.90;;;;;;4977981;28;20034;-86
2021/05/07 03:45:06;;;;;;;32.47;20.33;;;4.10;94.90;;;;;;4985518;28;20076;-86
2021/05/07 03:47:32;;;;;;;34.78;21.00;;;4.20;94.90;;;;;;4978886;28;20030;-85
2021/05/07 03:49:58;;;;;;;32.08;19.45;;;4.20;94.90;;;;;;4977805;28;20023;-85
2021/05/07 03:52:23;;;;;;;30.83;20.27;;;4.20;94.90;;;;;;4973897;28;20031;-86
2021/05/07 03:54:49;;;;;;;33.17;19.77;;;4.20;94.90;;;;;;4985219;28;20026;-85
2021/05/07 03:57:14;;;;;;;34.35;21.58;;;4.20;94.90;;;;;;4990567;28;20032;-85
2021/05/07 03:59:40;;;;;;;36.05;20.23;;;4.20;94.90;;;;;;4988363;28;20023;-85
2021/05/07 04:02:05;;;;;;;38.08;23.73;;;4.30;94.90;;;;;;4972477;28;20034;-85
2021/05/07 04:04:33;;;;;;;32.13;21.27;;;4.30;94.90;;;;;;4986768;28;20062;-86
2021/05/07 04:06:58;;;;;;;35.03;22.02;;;4.30;95.00;;;;;;4979013;28;20114;-85
2021/05/07 04:09:32;;;;;;;33.22;22.40;;;4.30;94.90;;;;;;4987375;28;20246;-84
2021/05/07 04:12:10;;;;;;;35.45;21.63;;;4.30;94.90;;;;;;4982692;28;20026;-85
2021/05/07 04:14:35;;;;;;;29.75;19.77;;;4.30;94.90;;;;;;4977357;28;20023;-84
2021/05/07 04:17:03;;;;;;;36.38;21.70;;;4.30;95.00;;;;;;4986024;28;20030;-85
2021/05/07 04:19:28;;;;;;;27.95;17.42;;;4.40;94.90;;;;;;4981691;28;20505;-85
2021/05/07 04:21:54;;;;;;;26.33;17.23;;;4.40;94.90;;;;;;4987547;28;20065;-83
2021/05/07 04:24:19;;;;;;;22.27;11.90;;;4.40;94.90;;;;;;4985281;28;20062;-83
2021/05/07 04:26:45;;;;;;;7.90;5.35;;;4.30;94.80;;;;;;4985049;28;20030;-85
2021/05/07 04:29:10;;;;;;;10.20;4.97;;;4.30;94.60;;;;;;4987126;28;20129;-84
2021/05/07 04:31:36;;;;;;;8.05;4.38;;;4.10;94.00;;;;;;4982906;28;20050;-84
2021/05/07 04:34:01;;;;;;;7.80;4.18;;;3.80;94.00;;;;;;4983839;28;20031;-84
2021/05/07 04:36:27;;;;;;;7.88;4.53;;;3.60;94.20;;;;;;5008257;28;20129;-84
2021/05/07 04:38:56;;;;;;;6.70;3.72;;;3.50;94.40;;;;;;5030299;28;20386;-84
2021/05/07 04:41:22;;;;;;;5.78;4.18;;;3.40;94.50;;;;;;4986791;28;20196;-84
2021/05/07 04:43:47;;;;;;;9.38;4.57;;;3.30;94.60;;;;;;4989197;28;20039;-84
2021/05/07 04:46:13;;;;;;;7.28;3.70;;;3.20;94.60;;;;;;4989559;28;20034;-84
2021/05/07 04:48:38;;;;;;;6.60;3.05;;;3.20;94.60;;;;;;4986312;28;20113;-85
2021/05/07 04:51:04;;;;;;;5.60;3.05;;;3.10;94.60;;;;;;4988503;28;20041;-85
2021/05/07 04:53:29;;;;;;;5.25;2.78;;;3.00;94.60;;;;;;4985078;28;20070;-84
2021/05/07 04:55:55;;;;;;;7.35;3.00;;;2.90;94.70;;;;;;4986715;28;20030;-84
2021/05/07 04:58:20;;;;;;;5.95;2.58;;;2.80;94.70;;;;;;4987802;28;20442;-84
2021/05/07 05:00:46;;;;;;;8.65;2.92;;;2.80;94.80;;;;;;4988846;28;20513;-85
2021/05/07 05:03:11;;;;;;;6.20;3.35;;;2.80;94.90;;;;;;4989014;28;20133;-85
2021/05/07 05:05:37;;;;;;;5.15;3.05;;;2.70;94.90;;;;;;4990128;28;20078;-85
2021/05/07 05:08:03;;;;;;;7.38;3.72;;;2.70;95.00;;;;;;4991561;28;20416;-85
2021/05/07 05:10:29;;;;;;;7.95;3.70;;;2.80;95.10;;;;;;4987597;28;20077;-85
2021/05/07 05:12:55;;;;;;;5.70;3.20;;;2.80;95.20;;;;;;4984639;28;20016;-85
2021/05/07 05:15:20;;;;;;;6.72;3.78;;;2.80;95.20;;;;;;4984026;28;20034;-86
2021/05/07 05:17:46;;;;;;;8.38;4.15;;;2.80;95.20;;;;;;4982718;28;20027;-85
2021/05/07 05:20:12;;;;;;;7.70;4.20;;;2.90;95.30;;;;;;4984187;28;20041;-85
2021/05/07 05:22:38;;;;;;;17.13;7.97;;;2.90;95.20;;;;;;4982339;28;20026;-85
2021/05/07 05:25:05;;;;;;;8.80;5.10;;;2.90;95.20;;;;;;4983377;28;20065;-85
2021/05/07 05:27:35;;;;;;;8.25;4.28;;;3.00;95.30;;;;;;4981646;28;20498;-84
2021/05/07 05:30:01;;;;;;;9.73;4.13;;;3.00;95.30;;;;;;4983280;28;20062;-85
2021/05/07 05:32:26;;;;;;;7.50;3.88;;;3.00;95.30;;;;;;4995542;28;20065;-85
2021/05/07 05:34:52;;;;;;;8.07;4.20;;;3.10;95.30;;;;;;4981824;28;20045;-85
2021/05/07 05:37:19;;;;;;;4.68;3.13;;;3.10;95.20;;;;;;4991648;28;20054;-84
2021/05/07 05:39:45;;;;;;;7.47;3.70;;;3.10;95.30;;;;;;4977247;28;20035;-85
2021/05/07 05:42:11;;;;;;;10.45;4.30;;;3.20;95.40;;;;;;4992446;28;20027;-85
2021/05/07 05:44:36;;;;;;;6.40;3.38;;;3.30;95.40;;;;;;4988663;28;20083;-85
2021/05/07 05:47:02;;;;;;;4.50;2.60;;;3.40;95.30;;;;;;4987738;28;20038;-86
2021/05/07 05:49:27;;;;;;;8.20;2.97;;;3.30;95.10;;;;;;4988150;28;20030;-86
2021/05/07 05:51:53;;;;;;;4.50;3.35;;;3.30;95.00;;;;;;4986647;28;20026;-86
2021/05/07 05:54:18;;;;;;;5.28;2.85;;;3.30;95.10;;;;;;4990076;28;20031;-85
2021/05/07 05:56:45;;;;;;;8.20;3.75;;;3.30;95.20;;;;;;4994759;28;20022;-86
2021/05/07 05:59:11;;;;;;;8.70;4.35;;;3.40;95.30;;;;;;4994680;28;20026;-86
2021/05/07 06:01:36;;;;;;;7.43;4.75;;;3.50;95.30;;;;;;4986961;28;20038;-86
2021/05/07 06:04:02;;;;;;;8.10;3.90;;;3.60;95.30;;;;;;4990962;28;20053;-86
2021/05/07 06:06:27;;;;;;;9.70;4.07;;;3.70;95.30;;;;;;4986876;28;20032;-85
2021/05/07 06:08:53;;;;;;;10.65;4.60;;;3.80;95.30;;;;;;4979338;28;20022;-86
2021/05/07 06:11:18;;;;;;;7.68;4.45;;;3.90;95.20;;;;;;4991697;28;20512;-86
2021/05/07 06:13:44;;;;;;;7.72;4.03;;;3.90;95.20;;;;;;4987320;28;20027;-86
2021/05/07 06:16:09;;;;;;;6.32;3.67;;;4.00;94.90;;;;;;4990470;28;20103;-85
2021/05/07 06:18:35;;;;;;;6.65;3.50;;;4.00;94.90;;;;;;4992007;28;20038;-86
2021/05/07 06:21:00;;;;;;;5.18;3.05;;;4.00;95.00;;;;;;4992113;28;20049;-86
2021/05/07 06:23:26;;;;;;;9.27;3.58;;;4.00;94.90;;;;;;4991426;28;20049;-85
2021/05/07 06:25:51;;;;;;;6.03;3.25;;;4.00;94.80;;;;;;4991203;28;20390;-85
2021/05/07 06:28:18;;;;;;;5.88;3.20;;;4.00;94.70;;;;;;4992880;28;20027;-86
2021/05/07 06:30:44;;;;;;;8.80;4.13;;;3.90;94.70;;;;;;4988950;28;20033;-86
2021/05/07 06:33:09;;;;;;;7.88;3.58;;;3.90;94.80;;;;;;4986388;28;20023;-86
2021/05/07 06:35:35;;;;;;;5.60;3.72;;;3.90;94.90;;;;;;4975005;28;20039;-86
2021/05/07 06:38:02;;;;;;;5.38;3.17;;;3.90;95.00;;;;;;4977760;28;20023;-86
2021/05/07 06:40:27;;;;;;;5.22;2.83;;;3.90;95.00;;;;;;4987114;28;20042;-86
2021/05/07 06:42:53;;;;;;;7.80;3.05;;;4.00;95.00;;;;;;4990479;28;20050;-86
2021/05/07 06:45:20;;;;;;;4.97;2.40;;;4.00;94.90;;;;;;4991466;28;20368;-86
2021/05/07 06:47:46;;;;;;;4.20;2.22;;;4.10;94.90;;;;;;4989289;28;20027;-86
2021/05/07 06:50:12;;;;;;;8.10;4.20;;;4.10;94.80;;;;;;4989454;28;20037;-85
2021/05/07 06:52:38;;;;;;;5.25;3.35;;;4.20;94.90;;;;;;4990628;28;20058;-85
2021/05/07 06:55:06;;;;;;;5.07;2.65;;;4.20;94.90;;;;;;4986390;28;20042;-86
2021/05/07 06:57:31;;;;;;;4.32;2.47;;;4.30;94.80;;;;;;4986302;28;20026;-86
2021/05/07 06:59:57;;;;;;;4.07;2.50;;;4.30;94.80;;;;;;4991334;28;20030;-86
2021/05/07 07:02:22;;;;;;;3.95;1.98;;;4.40;94.90;;;;;;4992055;28;20421;-85
2021/05/07 07:04:48;;;;;;;4.20;2.03;;;4.50;94.90;;;;;;4995846;28;20034;-86
2021/05/07 07:07:14;;;;;;;4.03;1.67;;;4.50;94.90;;;;;;4981297;28;20078;-86
2021/05/07 07:09:40;;;;;;;4.50;2.63;;;4.70;94.90;;;;;;4990474;28;20072;-86
2021/05/07 07:12:07;;;;;;;5.75;3.38;;;4.80;94.90;;;;;;4992347;28;20160;-85
2021/05/07 07:14:37;;;;;;;3.50;2.35;;;4.90;94.80;;;;;;4992021;28;20027;-86
2021/05/07 07:17:03;;;;;;;5.05;2.42;;;5.00;94.70;;;;;;4980040;28;20034;-85
2021/05/07 07:19:29;;;;;;;6.15;3.47;;;5.10;94.60;;;;;;4987065;28;20019;-85
2021/05/07 07:21:54;;;;;;;2.78;1.58;;;5.20;94.50;;;;;;4991803;28;20504;-85
2021/05/07 07:24:20;;;;;;;3.40;2.50;;;5.30;94.60;;;;;;4990511;28;20030;-86
2021/05/07 07:26:45;;;;;;;3.90;2.50;;;5.40;94.50;;;;;;4986228;28;20029;-86
2021/05/07 07:29:11;;;;;;;3.75;2.40;;;5.60;94.60;;;;;;4991155;28;20031;-85
2021/05/07 07:31:36;;;;;;;5.72;2.30;;;5.70;94.40;;;;;;4979732;28;20046;-85
2021/05/07 07:34:02;;;;;;;4.05;2.35;;;5.70;94.00;;;;;;4991877;28;20397;-83
2021/05/07 07:36:28;;;;;;;4.18;2.78;;;5.80;94.00;;;;;;4990662;28;20026;-83
2021/05/07 07:38:53;;;;;;;3.95;2.53;;;5.80;93.70;;;;;;4990123;28;20406;-83
2021/05/07 07:41:19;;;;;;;6.97;3.65;;;5.80;93.80;;;;;;4991244;28;20125;-83
2021/05/07 07:43:45;;;;;;;8.52;3.92;;;5.90;93.80;;;;;;4990306;28;20026;-83
2021/05/07 07:46:10;;;;;;;5.50;3.92;;;5.90;93.80;;;;;;4991143;28;20026;-83
2021/05/07 07:48:36;;;;;;;6.93;4.70;;;6.00;93.80;;;;;;4990889;28;20546;-85
2021/05/07 07:51:01;;;;;;;7.95;4.80;;;6.10;93.80;;;;;;4988949;28;20064;-85
2021/05/07 07:53:27;;;;;;;6.05;3.63;;;6.20;93.70;;;;;;4993440;28;20018;-85
2021/05/07 07:55:53;;;;;;;4.22;3.40;;;6.40;93.70;;;;;;4992514;28;20027;-85
2021/05/07 07:58:19;;;;;;;4.43;3.33;;;6.50;93.70;;;;;;4992532;28;20056;-85
2021/05/07 08:00:48;;;;;;;4.43;3.20;;;6.60;93.60;;;;;;4989316;28;20034;-85
2021/05/07 08:03:14;;;;;;;5.32;2.85;;;6.70;93.20;;;;;;4984376;28;20050;-85
2021/05/07 08:05:39;;;;;;;4.10;2.80;;;6.80;93.20;;;;;;4977788;28;20023;-84
2021/05/07 08:08:05;;;;;;;6.97;2.67;;;7.00;93.10;;;;;;4995607;28;20022;-85
2021/05/07 08:10:31;;;;;;;4.18;2.75;;;7.00;92.70;;;;;;4981566;28;20100;-85
2021/05/07 08:12:56;;;;;;;5.55;3.10;;;7.10;92.80;;;;;;4993352;28;20026;-86
2021/05/07 08:15:22;;;;;;;3.90;2.47;;;7.20;92.40;;;;;;4990115;28;20042;-85
2021/05/07 08:17:48;;;;;;;5.25;2.95;;;7.30;92.70;;;;;;4975648;28;20080;-85
2021/05/07 08:20:16;;;;;;;4.47;3.10;;;7.40;92.40;;;;;;4990205;28;20061;-85
2021/05/07 08:22:43;;;;;;;3.85;2.58;;;7.60;92.30;;;;;;4992423;28;21152;-85
2021/05/07 08:25:10;;;;;;;4.75;2.50;;;7.80;92.20;;;;;;4992204;28;20038;-84
2021/05/07 08:27:39;;;;;;;3.80;2.92;;;7.90;91.60;;;;;;4975538;28;20061;-84
2021/05/07 08:30:06;;;;;;;4.22;2.90;;;8.00;90.80;;;;;;4997146;28;20030;-84
2021/05/07 08:32:31;;;;;;;3.38;2.50;;;8.10;91.30;;;;;;4988791;28;20041;-85
2021/05/07 08:34:57;;;;;;;4.18;2.70;;;8.30;91.10;;;;;;4987747;28;20026;-85
2021/05/07 08:37:23;;;;;;;3.10;2.28;;;8.10;90.10;;;;;;4986288;28;20029;-85
2021/05/07 08:39:48;;;;;;;4.18;2.63;;;8.10;90.80;;;;;;4989890;28;20081;-84
2021/05/07 08:42:15;;;;;;;7.75;2.60;;;8.10;90.60;;;;;;4974881;28;20509;-85
2021/05/07 08:44:42;;;;;;;6.80;2.95;;;8.30;91.00;;;;;;4977623;28;20042;-85
2021/05/07 08:47:07;;;;;;;5.28;2.70;;;8.60;90.30;;;;;;4975440;28;20087;-85
2021/05/07 08:49:33;;;;;;;4.45;3.00;;;8.70;90.00;;;;;;4985889;28;20035;-85
2021/05/07 08:51:58;;;;;;;4.65;3.17;;;8.60;89.10;;;;;;4988385;28;20034;-86
2021/05/07 08:54:28;;;;;;;5.78;2.55;;;8.60;89.30;;;;;;4989977;28;20393;-86
2021/05/07 08:56:54;;;;;;;5.95;2.63;;;8.70;88.90;;;;;;4980931;28;20023;-84
2021/05/07 08:59:19;;;;;;;5.68;3.28;;;8.80;87.00;;;;;;4990837;28;20026;-84
2021/05/07 09:01:48;;;;;;;5.38;2.72;;;9.00;88.00;;;;;;4986731;28;20041;-85
2021/05/07 09:04:16;;;;;;;3.45;1.80;;;9.10;86.00;;;;;;4984292;28;20047;-85
2021/05/07 09:06:52;;;;;;;3.72;2.45;;;9.10;85.90;;;;;;4993221;28;20109;-85
2021/05/07 09:09:21;;;;;;;4.45;2.10;;;9.20;83.10;;;;;;4992564;28;20056;-86
2021/05/07 09:11:46;;;;;;;4.78;2.28;;;9.20;82.90;;;;;;4989749;28;20023;-85
2021/05/07 09:14:12;;;;;;;4.75;2.50;;;9.10;81.90;;;;;;4983201;28;20072;-85
2021/05/07 09:16:52;;;;;;;4.70;2.10;;;9.10;81.00;;;;;;4992797;28;20172;-83
2021/05/07 09:19:23;;;;;;;6.32;2.80;;;9.30;82.40;;;;;;4992866;28;20041;-83
2021/05/07 09:21:49;;;;;;;4.47;2.22;;;9.50;81.70;;;;;;4991496;28;20379;-84
2021/05/07 09:24:17;;;;;;;3.67;1.20;;;9.60;81.10;;;;;;4988444;28;20026;-84
2021/05/07 09:26:47;;;;;;;3.45;1.40;;;9.70;80.10;;;;;;4986421;28;20042;-84
2021/05/07 09:29:25;;;;;;;3.15;1.40;;;9.90;77.90;;;;;;4994952;28;20023;-84
2021/05/07 09:31:51;;;;;;;4.70;1.98;;;9.90;78.10;;;;;;4993130;28;20382;-83
2021/05/07 09:34:19;;;;;;;4.65;1.77;;;9.90;77.90;;;;;;4992630;28;20080;-84
2021/05/07 09:36:45;;;;;;;4.05;1.73;;;9.90;77.50;;;;;;4987365;28;20090;-84
2021/05/07 09:39:12;;;;;;;3.40;1.58;;;9.90;78.30;;;;;;4981245;28;20500;-84
2021/05/07 09:41:46;;;;;;;4.85;2.20;;;9.90;77.50;;;;;;4973858;28;20046;-84
2021/05/07 09:44:18;;;;;;;4.35;2.00;;;9.70;77.40;;;;;;5010495;28;20484;-84
2021/05/07 09:46:44;;;;;;;2.97;1.45;;;9.40;77.40;;;;;;4990865;28;20034;-84
2021/05/07 09:49:20;;;;;;;4.05;1.75;;;9.20;78.00;;;;;;4977875;28;20077;-84
2021/05/07 09:51:46;;;;;;;4.75;2.35;;;9.20;78.80;;;;;;4979506;28;20050;-84
2021/05/07 09:54:11;;;;;;;5.47;1.80;;;9.40;78.50;;;;;;4992109;28;20092;-84
2021/05/07 09:56:37;;;;;;;3.90;2.00;;;9.60;78.40;;;;;;4992234;28;20460;-85
2021/05/07 09:59:04;;;;;;;4.10;2.60;;;9.90;77.80;;;;;;4992203;28;20044;-85
2021/05/07 10:01:30;;;;;;;4.65;2.45;;;10.20;77.90;;;;;;4989793;28;20039;-85
2021/05/07 10:03:58;;;;;;;7.20;1.85;;;10.40;76.30;;;;;;4989368;28;20578;-84
2021/05/07 10:06:23;;;;;;;3.67;1.75;;;10.30;74.80;;;;;;4992431;28;20141;-84
2021/05/07 10:08:50;;;;;;;3.63;1.85;;;10.10;74.60;;;;;;4987925;28;20050;-85
2021/05/07 10:11:18;;;;;;;3.70;1.92;;;10.10;74.50;;;;;;5005640;28;20026;-85
2021/05/07 10:13:44;;;;;;;5.10;1.63;;;10.30;75.50;;;;;;4998028;28;20078;-85
2021/05/07 10:16:10;;;;;;;4.05;2.03;;;10.40;73.50;;;;;;4992963;28;20022;-85
2021/05/07 10:18:38;;;;;;;5.18;2.13;;;10.40;73.30;;;;;;4993340;28;20030;-85
2021/05/07 10:21:13;;;;;;;4.55;2.13;;;10.50;75.20;;;;;;4978920;28;20125;-85
2021/05/07 10:23:50;;;;;;;4.80;2.33;;;10.80;74.60;;;;;;4992118;28;20447;-85
2021/05/07 10:26:16;;;;;;;4.15;2.50;;;10.90;73.80;;;;;;4993427;28;20030;-85
2021/05/07 10:28:51;;;;;;;4.20;1.30;;;11.10;72.20;;;;;;4993765;28;20026;-85
2021/05/07 10:31:17;;;;;;;2.40;1.40;;;11.20;71.20;;;;;;4990680;28;20026;-86
2021/05/07 10:34:00;;;;;;;4.20;1.40;;;11.10;67.50;;;;;;4992850;28;20084;-85
2021/05/07 10:36:36;;;;;;;6.18;2.08;;;11.10;69.10;;;;;;4994126;28;20022;-86
2021/05/07 10:39:02;;;;;;;4.70;2.20;;;11.10;69.30;;;;;;4993209;28;20069;-86
2021/05/07 10:41:33;;;;;;;4.57;2.50;;;10.80;70.30;;;;;;4994248;28;20090;-85
2021/05/07 10:43:59;;;;;;;3.92;2.00;;;10.60;72.00;;;;;;4989101;28;20030;-86
2021/05/07 10:46:26;;;;;;;4.78;2.95;;;10.40;73.20;;;;;;4993164;28;20168;-85
2021/05/07 10:48:53;;;;;;;4.55;2.58;;;10.20;74.30;;;;;;4993006;28;20030;-85
2021/05/07 10:51:19;;;;;;;5.32;2.50;;;10.30;75.40;;;;;;4992945;28;20066;-86
2021/05/07 10:53:45;;;;;;;6.03;3.13;;;10.50;75.70;;;;;;4988321;28;20026;-86
2021/05/07 10:56:17;;;;;;;6.63;2.80;;;10.70;75.50;;;;;;4986553;28;20037;-86
2021/05/07 10:58:43;;;;;;;7.90;3.05;;;10.90;75.70;;;;;;4985056;28;20033;-86
2021/05/07 11:01:20;;;;;;;3.88;2.45;;;11.00;75.30;;;;;;4984301;28;20410;-86
2021/05/07 11:03:57;;;;;;;5.57;2.33;;;11.10;75.20;;;;;;4974737;28;20051;-86
2021/05/07 11:06:32;;;;;;;4.85;2.35;;;11.30;74.60;;;;;;4975419;28;20375;-86
2021/05/07 11:08:57;;;;;;;3.75;1.95;;;11.40;74.50;;;;;;4988588;28;20023;-86
2021/05/07 11:11:23;;;;;;;5.63;2.20;;;11.40;73.70;;;;;;4992405;28;20038;-86
2021/05/07 11:13:48;;;;;;;4.28;2.15;;;11.60;72.90;;;;;;4992144;28;20030;-86
2021/05/07 11:16:14;;;;;;;4.82;2.28;;;11.60;72.90;;;;;;4985806;28;20030;-86
2021/05/07 11:18:47;;;;;;;4.72;2.50;;;11.70;72.00;;;;;;4991645;28;20381;-86
2021/05/07 11:21:14;;;;;;;3.25;1.85;;;11.80;71.50;;;;;;4990291;28;20524;-86
2021/05/07 11:23:40;;;;;;;3.25;1.95;;;11.90;70.30;;;;;;4992488;28;20037;-86
2021/05/07 11:26:07;;;;;;;4.75;2.10;;;12.10;69.00;;;;;;5039127;28;20024;-86
2021/05/07 11:28:41;;;;;;;4.20;2.30;;;12.30;68.00;;;;;;5019406;28;20093;-86
2021/05/07 11:31:07;;;;;;;7.97;3.78;;;12.30;68.70;;;;;;4987104;28;20030;-86
2021/05/07 11:33:33;;;;;;;4.07;2.00;;;12.40;67.60;;;;;;4992396;28;20405;-86
2021/05/07 11:36:10;;;;;;;3.58;2.25;;;12.20;64.20;;;;;;4991634;28;20037;-86
2021/05/07 11:38:37;;;;;;;4.07;1.98;;;11.90;65.50;;;;;;5006783;28;20030;-87
2021/05/07 11:41:03;;;;;;;4.80;1.73;;;12.10;65.70;;;;;;4992521;28;20057;-86
2021/05/07 11:43:30;;;;;;;5.55;1.90;;;12.20;64.90;;;;;;4984888;28;20023;-86
2021/05/07 11:46:06;;;;;;;6.38;1.77;;;12.50;64.00;;;;;;4979749;28;20100;-85
2021/05/07 11:48:32;;;;;;;3.92;1.40;;;12.70;62.30;;;;;;4980510;28;20743;-86
2021/05/07 11:51:03;;;;;;;3.78;1.10;;;12.50;57.80;;;;;;4977984;28;20072;-86
2021/05/07 11:53:29;;;;;;;2.20;1.05;;;12.20;59.00;;;;;;4981925;28;20062;-86
2021/05/07 11:55:54;;;;;;;4.43;1.83;;;12.00;59.70;;;;;;4991463;28;20555;-86
2021/05/07 11:58:32;;;;;;;3.00;1.70;;;11.90;60.70;;;;;;4991265;28;20026;-86
2021/05/07 12:00:58;;;;;;;4.05;1.85;;;11.60;60.80;;;;;;4971999;28;20035;-86
2021/05/07 12:03:34;;;;;;;4.20;2.60;;;11.30;61.90;;;;;;4991840;28;20095;-86
2021/05/07 12:06:00;;;;;;;3.60;1.83;;;11.10;61.90;;;;;;4991133;28;20030;-86
2021/05/07 12:08:26;;;;;;;2.83;1.75;;;11.30;62.40;;;;;;4987118;28;20031;-86
2021/05/07 12:10:52;;;;;;;2.58;1.60;;;11.50;61.50;;;;;;4972810;28;20026;-87
2021/05/07 12:13:23;;;;;;;2.50;1.13;;;11.70;60.70;;;;;;4990756;28;20032;-86
2021/05/07 12:15:49;;;;;;;3.78;1.50;;;12.00;61.00;;;;;;4981802;28;20037;-85
2021/05/07 12:18:17;;;;;;;3.63;1.50;;;12.10;57.30;;;;;;4989447;28;20049;-85
2021/05/07 12:20:45;;;;;;;4.80;2.10;;;12.40;59.50;;;;;;4988271;28;20041;-86
2021/05/07 12:23:12;;;;;;;5.15;2.28;;;12.70;61.10;;;;;;4989108;28;20034;-86
2021/05/07 12:25:42;;;;;;;4.22;1.75;;;12.60;59.80;;;;;;4989773;28;20027;-86
2021/05/07 12:28:19;;;;;;;3.65;1.83;;;12.60;61.10;;;;;;4990781;28;20026;-86
2021/05/07 12:30:47;;;;;;;3.47;2.08;;;12.60;59.80;;;;;;4988405;28;20027;-86
2021/05/07 12:33:18;;;;;;;3.75;1.80;;;12.60;58.40;;;;;;4990675;28;20030;-86
2021/05/07 12:35:46;;;;;;;6.30;2.55;;;12.70;60.90;;;;;;4989897;28;20058;-86
2021/05/07 12:38:33;;;;;;;5.35;2.53;;;12.80;59.00;;;;;;4985439;28;20161;-86
2021/05/07 12:41:07;;;;;;;3.55;2.15;;;13.00;59.00;;;;;;4987709;28;20053;-86
2021/05/07 12:43:36;;;;;;;4.30;2.20;;;12.90;57.90;;;;;;4987906;28;20027;-86
2021/05/07 12:46:01;;;;;;;4.35;1.98;;;12.50;56.50;;;;;;4990070;28;20037;-86
2021/05/07 12:48:27;;;;;;;3.75;2.45;;;12.10;57.70;;;;;;4990008;28;20022;-85